DAOF

Details ICAO DAOF (TIN)
Name TINDOUF
Region Algeria
Timezone Africa/Algiers (UTC+1.0)
Plans Departing 7
Arriving 19
Stats Elevation 1,453 ft / 443 m (AMSL)
Location 27.700371° -8.167102°
Runways 2
Magnetic Variation 2.229° W
Sunrise 2017-12-15 07:17:14 UTC / 2017-12-15 08:17:14 Local
Sunset 2017-12-15 17:41:13 UTC / 2017-12-15 18:41:13 Local
Advertisement - Login to hide

Runways

ID Width Length Bearing (true) Bearing (mag) Surface Threshold Offset Overrun Length
08 150 ft / 46 m 9,816 ft / 2,992 m 75.53° 77.76° Asphalt 0 ft / 0 m 0 ft / 0 m
08R 150 ft / 46 m 9,828 ft / 2,996 m 75.54° 77.77° Asphalt 0 ft / 0 m 0 ft / 0 m
26 150 ft / 46 m 9,816 ft / 2,992 m 255.54° 257.77° Asphalt 0 ft / 0 m 0 ft / 0 m
26L 150 ft / 46 m 9,828 ft / 2,996 m 255.56° 257.79° Asphalt 0 ft / 0 m 0 ft / 0 m

Map

Weather


0- 5 10 15 20 25 30 35+ Temperature / ° C

Clouds and Precipitation
Forecast for 2017-12-16 00:00 UTC. Updated an hour ago

Ground ~20,000 ft ~40,000 ft Winds

METAR

DAOF 152000Z 26010KT CAVOK 16/M01 Q1018

TAF

Not found
Warning: Do not use this data for real-world aviation or navigation. No guarantee of current accuracy is given.